createdAt,value
2018-03-02T00:02:34.652Z,22.30
2018-03-02T00:05:20.181Z,22.20
2018-03-02T00:08:03.783Z,22.20
2018-03-02T00:10:47.509Z,22.20
2018-03-02T00:13:31.196Z,22.20
2018-03-02T00:16:14.842Z,22.20
2018-03-02T00:18:58.596Z,22.20
2018-03-02T00:21:43.698Z,22.20
2018-03-02T00:24:28.592Z,22.20
2018-03-02T00:27:12.345Z,22.20
2018-03-02T00:29:56.225Z,22.20
2018-03-02T00:32:42.094Z,22.20
2018-03-02T00:35:27.001Z,22.20
2018-03-02T00:38:11.602Z,22.20
2018-03-02T00:40:55.509Z,22.20
2018-03-02T00:43:40.085Z,22.20
2018-03-02T00:46:24.155Z,22.20
2018-03-02T00:49:08.501Z,22.20
2018-03-02T00:51:52.978Z,22.20
2018-03-02T00:54:37.530Z,22.20
2018-03-02T00:57:21.324Z,22.20
2018-03-02T01:00:05.081Z,22.20
2018-03-02T01:02:48.708Z,22.20
2018-03-02T01:05:33.367Z,22.20
2018-03-02T01:08:17.722Z,22.20
2018-03-02T01:11:03.165Z,22.20
2018-03-02T01:13:47.269Z,22.20
2018-03-02T01:16:32.056Z,22.20
2018-03-02T01:19:16.233Z,22.20
2018-03-02T01:22:01.320Z,22.20
2018-03-02T01:24:45.206Z,22.20
2018-03-02T01:27:29.976Z,22.20
2018-03-02T01:30:13.788Z,22.20
2018-03-02T01:32:58.368Z,22.20
2018-03-02T01:35:42.239Z,22.20
2018-03-02T01:38:27.546Z,22.20
2018-03-02T01:41:11.645Z,22.20
2018-03-02T01:43:55.954Z,22.20
2018-03-02T01:46:39.908Z,22.30
2018-03-02T01:49:25.653Z,22.20
2018-03-02T01:52:09.585Z,22.30
2018-03-02T01:54:53.508Z,22.20
2018-03-02T01:57:37.316Z,22.20
2018-03-02T02:00:21.448Z,22.20
2018-03-02T02:03:05.189Z,22.20
2018-03-02T02:05:50.099Z,22.20
2018-03-02T02:08:33.961Z,22.20
2018-03-02T02:11:17.720Z,22.20
2018-03-02T02:14:02.102Z,22.20
2018-03-02T02:16:46.898Z,22.30
2018-03-02T02:19:30.764Z,22.20
2018-03-02T02:22:14.404Z,22.20
2018-03-02T02:24:58.361Z,22.20
2018-03-02T02:27:42.789Z,22.20
2018-03-02T02:30:26.668Z,22.20
2018-03-02T02:33:10.390Z,22.40
2018-03-02T02:35:55.080Z,22.30
2018-03-02T02:38:39.604Z,22.20
2018-03-02T02:41:24.388Z,22.20
2018-03-02T02:44:09.235Z,22.20
2018-03-02T02:46:52.958Z,22.70
2018-03-02T02:49:36.891Z,22.20
2018-03-02T02:52:21.743Z,22.20
2018-03-02T02:55:05.335Z,22.20
2018-03-02T02:57:49.195Z,22.20
2018-03-02T03:00:33.579Z,22.20
2018-03-02T03:03:17.381Z,22.30
2018-03-02T03:06:01.155Z,22.30
2018-03-02T03:08:44.771Z,22.20
2018-03-02T03:11:28.386Z,22.20
2018-03-02T03:14:12.011Z,22.20
2018-03-02T03:16:55.561Z,22.20
2018-03-02T03:19:39.368Z,22.20
2018-03-02T03:22:23.283Z,22.30
2018-03-02T03:25:07.361Z,22.30
2018-03-02T03:27:51.203Z,23.20
2018-03-02T03:30:35.032Z,22.50
2018-03-02T03:33:18.922Z,22.30
2018-03-02T03:36:02.742Z,22.30
2018-03-02T03:38:46.387Z,22.30
2018-03-02T03:41:30.106Z,22.20
2018-03-02T03:44:13.858Z,22.60
2018-03-02T03:46:59.290Z,22.30
2018-03-02T03:49:43.182Z,23.20
2018-03-02T03:52:27.095Z,22.20
2018-03-02T03:55:10.905Z,22.20
2018-03-02T03:57:54.622Z,22.30
2018-03-02T04:00:38.588Z,22.30
2018-03-02T04:03:22.800Z,23.10
2018-03-02T04:06:06.894Z,22.60
2018-03-02T04:08:50.538Z,22.30
2018-03-02T04:11:34.357Z,22.20
2018-03-02T04:14:18.070Z,22.30
2018-03-02T04:17:02.636Z,22.20
2018-03-02T04:19:46.683Z,22.20
2018-03-02T04:22:31.502Z,22.20
2018-03-02T04:25:15.369Z,22.20
2018-03-02T04:27:59.935Z,22.20
2018-03-02T04:30:44.543Z,22.20
2018-03-02T04:33:28.139Z,22.20
2018-03-02T04:36:13.209Z,22.20
2018-03-02T04:38:57.789Z,22.20
2018-03-02T04:41:41.587Z,22.20
2018-03-02T04:44:25.333Z,22.20
2018-03-02T04:47:09.243Z,22.20
2018-03-02T04:49:54.542Z,22.10
2018-03-02T04:52:38.305Z,22.50
2018-03-02T04:55:22.093Z,22.10
2018-03-02T04:58:05.734Z,22.10
2018-03-02T05:00:49.763Z,22.10
2018-03-02T05:03:33.798Z,22.10
2018-03-02T05:06:18.666Z,22.10
2018-03-02T05:09:02.386Z,22.00
2018-03-02T05:11:46.149Z,22.10
2018-03-02T05:14:30.970Z,22.10
2018-03-02T05:17:14.683Z,22.90
2018-03-02T05:19:58.217Z,22.00
2018-03-02T05:22:41.851Z,22.00
2018-03-02T05:25:25.658Z,22.10
2018-03-02T05:28:09.308Z,22.00
2018-03-02T05:30:53.082Z,22.00
2018-03-02T05:33:36.890Z,22.00
2018-03-02T05:36:20.658Z,22.10
2018-03-02T05:39:04.314Z,22.00
2018-03-02T05:41:48.253Z,22.00
2018-03-02T05:44:32.014Z,22.00
2018-03-02T05:47:15.880Z,22.00
2018-03-02T05:49:59.893Z,22.00
2018-03-02T05:52:43.451Z,22.00
2018-03-02T05:55:27.227Z,22.00
2018-03-02T05:58:11.962Z,22.00
2018-03-02T06:00:55.767Z,22.00
2018-03-02T06:03:39.442Z,22.00
2018-03-02T06:06:23.041Z,22.00
2018-03-02T06:09:06.962Z,22.00
2018-03-02T06:11:50.586Z,22.00
2018-03-02T06:14:34.927Z,22.00
2018-03-02T06:17:19.489Z,22.00
2018-03-02T06:20:03.277Z,22.00
2018-03-02T06:22:47.572Z,22.00
2018-03-02T06:25:31.127Z,22.00
2018-03-02T06:28:15.758Z,22.00
2018-03-02T06:31:00.408Z,22.00
2018-03-02T06:33:44.174Z,22.00
2018-03-02T06:36:28.902Z,22.00
2018-03-02T06:39:13.521Z,22.00
2018-03-02T06:41:57.138Z,22.00
2018-03-02T06:44:41.200Z,22.00
2018-03-02T06:47:26.142Z,22.00
2018-03-02T06:50:09.931Z,22.00
2018-03-02T06:52:54.521Z,22.00
2018-03-02T06:55:38.223Z,22.00
2018-03-02T06:58:22.030Z,22.00
2018-03-02T07:01:06.281Z,22.00
2018-03-02T07:03:50.172Z,22.00
2018-03-02T07:06:34.121Z,22.00
2018-03-02T07:09:18.011Z,22.00
2018-03-02T07:12:03.569Z,22.00
2018-03-02T07:14:47.581Z,22.00
2018-03-02T07:17:32.193Z,22.00
2018-03-02T07:20:16.134Z,22.00
2018-03-02T07:23:00.055Z,22.00
2018-03-02T07:25:44.166Z,22.00
2018-03-02T07:28:28.966Z,22.10
2018-03-02T07:31:12.789Z,22.00
2018-03-02T07:33:56.619Z,22.10
2018-03-02T07:36:40.659Z,22.00
2018-03-02T07:39:24.643Z,22.10
2018-03-02T07:42:08.290Z,22.10
2018-03-02T07:44:53.873Z,22.10
2018-03-02T07:47:38.846Z,22.10
2018-03-02T07:50:23.447Z,22.10
2018-03-02T07:53:08.167Z,22.10
2018-03-02T07:55:51.868Z,22.10
2018-03-02T07:58:35.818Z,22.10
2018-03-02T08:01:19.494Z,22.10
2018-03-02T08:04:03.399Z,22.10
2018-03-02T08:06:47.183Z,22.10
2018-03-02T08:09:30.827Z,22.10
2018-03-02T08:12:14.801Z,22.10
2018-03-02T08:14:58.628Z,22.20
2018-03-02T08:17:42.704Z,22.30
2018-03-02T08:20:26.468Z,22.30
2018-03-02T08:23:11.215Z,22.40
2018-03-02T08:25:55.305Z,22.40
2018-03-02T08:29:37.168Z,22.40
2018-03-02T08:32:21.118Z,22.50
2018-03-02T08:35:06.417Z,22.50
2018-03-02T08:37:49.927Z,22.60
2018-03-02T08:40:34.050Z,22.60
2018-03-02T08:43:18.031Z,22.60
2018-03-02T08:46:02.186Z,22.60
2018-03-02T08:48:46.197Z,22.70
2018-03-02T08:51:29.957Z,22.70
2018-03-02T08:54:13.623Z,22.80
2018-03-02T08:56:57.481Z,22.80
2018-03-02T08:59:41.330Z,22.90
2018-03-02T09:02:25.095Z,22.90
2018-03-02T09:05:09.404Z,22.90
2018-03-02T09:07:53.767Z,23.00
2018-03-02T09:10:38.279Z,23.00
2018-03-02T09:13:22.650Z,23.00
2018-03-02T09:16:06.269Z,22.90
2018-03-02T09:18:50.069Z,23.00
2018-03-02T09:21:33.840Z,23.00
2018-03-02T09:24:17.518Z,23.00
2018-03-02T09:27:01.409Z,23.00
2018-03-02T09:29:45.226Z,23.00
2018-03-02T09:32:29.941Z,23.00
2018-03-02T09:35:13.694Z,23.00
2018-03-02T09:37:57.236Z,23.00
2018-03-02T09:40:41.407Z,23.10
2018-03-02T09:43:26.542Z,23.10
2018-03-02T09:46:10.319Z,23.10
2018-03-02T09:48:53.930Z,23.10
2018-03-02T09:51:37.814Z,23.10
2018-03-02T09:54:21.536Z,23.10
2018-03-02T09:57:05.381Z,23.00
2018-03-02T09:59:49.348Z,23.10
2018-03-02T10:02:34.418Z,23.10
2018-03-02T10:05:19.326Z,22.90
2018-03-02T10:08:05.281Z,22.90
2018-03-02T10:10:50.655Z,22.90
2018-03-02T10:13:35.274Z,22.90
2018-03-02T10:16:18.903Z,22.90
2018-03-02T10:19:02.758Z,22.90
2018-03-02T10:21:47.215Z,22.90
2018-03-02T10:24:31.181Z,22.90
2018-03-02T10:27:14.931Z,22.90
2018-03-02T10:29:58.723Z,23.00
2018-03-02T10:32:43.148Z,23.00
2018-03-02T10:35:27.692Z,23.00
2018-03-02T10:38:11.163Z,23.00
2018-03-02T10:40:54.969Z,23.00
2018-03-02T10:43:38.733Z,23.10
2018-03-02T10:46:22.530Z,23.00
2018-03-02T10:49:06.222Z,23.00
2018-03-02T10:51:50.022Z,23.00
2018-03-02T10:54:33.902Z,23.10
2018-03-02T10:57:17.872Z,23.10
2018-03-02T11:00:03.987Z,23.10
2018-03-02T11:02:57.098Z,23.10
2018-03-02T11:05:45.091Z,23.10
2018-03-02T11:08:28.867Z,23.10
2018-03-02T11:11:12.854Z,23.10
2018-03-02T11:13:57.045Z,23.10
2018-03-02T11:16:41.279Z,23.20
2018-03-02T11:19:26.748Z,23.10
2018-03-02T11:22:10.867Z,23.20
2018-03-02T11:24:54.846Z,23.10
2018-03-02T11:27:40.087Z,23.20
2018-03-02T11:30:23.853Z,23.10
2018-03-02T11:33:07.646Z,23.20
2018-03-02T11:35:51.478Z,23.10
2018-03-02T11:38:35.683Z,23.10
2018-03-02T11:41:19.484Z,23.10
2018-03-02T11:44:05.591Z,23.10
2018-03-02T11:46:49.199Z,23.10
2018-03-02T11:49:32.870Z,23.20
2018-03-02T11:52:16.538Z,23.20
2018-03-02T11:55:00.146Z,23.10
2018-03-02T11:57:44.245Z,23.20
2018-03-02T12:00:27.785Z,23.10
2018-03-02T12:03:11.443Z,22.70
2018-03-02T12:05:58.129Z,22.70
2018-03-02T12:08:42.639Z,23.00
2018-03-02T12:11:26.631Z,23.00
2018-03-02T12:14:11.318Z,23.20
2018-03-02T12:16:55.314Z,23.20
2018-03-02T12:19:38.949Z,23.30
2018-03-02T12:22:24.538Z,23.30
2018-03-02T12:25:08.806Z,23.30
2018-03-02T12:27:52.711Z,23.40
2018-03-02T12:30:36.897Z,23.40
2018-03-02T12:33:20.941Z,23.50
2018-03-02T12:36:05.407Z,23.60
2018-03-02T12:38:49.348Z,23.50
2018-03-02T12:41:33.763Z,23.60
2018-03-02T12:44:22.634Z,23.60
2018-03-02T12:47:06.226Z,23.60
2018-03-02T12:49:50.598Z,23.60
2018-03-02T12:52:34.591Z,23.70
2018-03-02T12:55:18.619Z,23.60
2018-03-02T12:58:03.599Z,23.60
2018-03-02T13:00:47.561Z,23.60
2018-03-02T13:03:31.355Z,23.60
2018-03-02T13:06:16.046Z,23.80
2018-03-02T13:09:00.676Z,23.70
2018-03-02T13:11:44.225Z,23.80
2018-03-02T13:14:28.199Z,23.70
2018-03-02T13:17:11.915Z,23.70
2018-03-02T13:19:56.672Z,23.80
2018-03-02T13:22:40.670Z,23.80
2018-03-02T13:25:24.478Z,23.70
2018-03-02T13:37:23.178Z,23.70
2018-03-02T13:40:15.713Z,23.80
2018-03-02T13:42:58.922Z,23.70
2018-03-02T13:45:39.535Z,23.70
2018-03-02T13:48:41.031Z,23.70
2018-03-02T13:51:21.764Z,23.60
2018-03-02T13:54:02.347Z,23.60
2018-03-02T13:56:55.100Z,23.60
2018-03-02T13:59:36.445Z,23.60
2018-03-02T14:02:29.215Z,23.60
2018-03-02T14:05:10.132Z,23.60
2018-03-02T14:07:51.643Z,23.60
2018-03-02T14:10:32.053Z,23.60
2018-03-02T14:13:12.811Z,23.60
2018-03-02T14:15:53.421Z,23.70
2018-03-02T14:18:34.103Z,23.70
2018-03-02T14:21:15.497Z,23.70
2018-03-02T14:23:57.120Z,23.80
2018-03-02T14:26:37.598Z,23.80
2018-03-02T14:29:18.214Z,23.80
2018-03-02T14:31:59.941Z,23.90
2018-03-02T14:34:40.696Z,23.90
2018-03-02T14:37:21.452Z,23.90
2018-03-02T14:40:03.061Z,23.90
2018-03-02T14:42:43.806Z,23.80
2018-03-02T14:45:25.140Z,23.90
2018-03-02T14:48:05.883Z,23.80
2018-03-02T14:50:46.451Z,23.80
2018-03-02T14:53:27.038Z,23.80
2018-03-02T14:56:07.666Z,23.80
2018-03-02T14:58:49.071Z,23.80
2018-03-02T15:01:29.769Z,23.80
2018-03-02T15:04:11.222Z,23.80
2018-03-02T15:06:51.825Z,23.80
2018-03-02T15:09:32.399Z,23.80
2018-03-02T15:12:13.098Z,23.80
2018-03-02T15:14:53.667Z,23.80
2018-03-02T15:17:34.526Z,23.80
2018-03-02T15:20:15.261Z,23.80
2018-03-02T15:22:55.760Z,23.80
2018-03-02T15:25:37.511Z,23.80
2018-03-02T15:28:18.496Z,23.80
2018-03-02T15:30:59.145Z,23.80
2018-03-02T15:33:39.821Z,23.70
2018-03-02T15:36:21.693Z,23.70
2018-03-02T15:39:03.073Z,23.60
2018-03-02T15:41:44.534Z,23.60
2018-03-02T15:44:25.211Z,23.60
2018-03-02T15:47:05.866Z,23.60
2018-03-02T15:49:47.368Z,23.70
2018-03-02T15:52:28.282Z,23.70
2018-03-02T15:55:09.792Z,23.70
2018-03-02T15:57:50.542Z,23.70
2018-03-02T16:00:31.149Z,23.70
2018-03-02T16:03:11.811Z,23.70
2018-03-02T16:05:52.536Z,23.60
2018-03-02T16:08:33.503Z,23.70
2018-03-02T16:11:14.296Z,23.60
2018-03-02T16:13:56.695Z,23.60
2018-03-02T16:16:37.274Z,23.60
2018-03-02T16:19:18.027Z,23.60
2018-03-02T16:21:59.560Z,23.60
2018-03-02T16:24:40.277Z,23.50
2018-03-02T16:27:20.919Z,23.60
2018-03-02T16:30:02.395Z,23.50
2018-03-02T16:32:44.589Z,23.60
2018-03-02T16:35:25.303Z,23.60
2018-03-02T16:38:06.032Z,23.60
2018-03-02T16:40:46.600Z,23.60
2018-03-02T16:43:27.183Z,23.60
2018-03-02T16:46:08.107Z,23.60
2018-03-02T16:48:48.823Z,23.70
2018-03-02T16:51:29.275Z,23.80
2018-03-02T16:54:10.741Z,23.80
2018-03-02T16:56:52.282Z,23.70
2018-03-02T16:59:32.869Z,23.70
2018-03-02T17:02:13.606Z,23.70
2018-03-02T17:04:54.048Z,23.80
2018-03-02T17:07:34.721Z,23.80
2018-03-02T17:10:15.306Z,23.80
2018-03-02T17:12:56.059Z,23.80
2018-03-02T17:15:36.831Z,23.80
2018-03-02T17:18:18.616Z,23.80
2018-03-02T17:20:59.586Z,23.80
2018-03-02T17:23:40.242Z,23.80
2018-03-02T17:26:20.925Z,23.70
2018-03-02T17:29:02.250Z,23.80
2018-03-02T17:31:43.148Z,23.80
2018-03-02T17:34:23.749Z,23.70
2018-03-02T17:37:04.449Z,23.70
2018-03-02T17:39:45.012Z,23.60
2018-03-02T17:42:26.687Z,23.60
2018-03-02T17:45:07.351Z,23.60
2018-03-02T17:47:49.023Z,23.60
2018-03-02T17:50:29.699Z,23.50
2018-03-02T17:53:10.335Z,23.50
2018-03-02T17:55:51.110Z,23.40
2018-03-02T17:58:31.766Z,23.40
2018-03-02T18:01:12.913Z,23.40
2018-03-02T18:03:53.556Z,23.40
2018-03-02T18:06:34.219Z,23.40
2018-03-02T18:09:15.383Z,23.30
2018-03-02T18:11:56.194Z,23.30
2018-03-02T18:14:36.788Z,23.30
2018-03-02T18:17:17.242Z,23.30
2018-03-02T18:19:57.862Z,23.30
2018-03-02T18:22:39.185Z,23.20
2018-03-02T18:25:19.941Z,23.20
2018-03-02T18:28:00.742Z,23.20
2018-03-02T18:30:41.447Z,23.20
2018-03-02T18:33:22.091Z,23.20
2018-03-02T18:36:03.439Z,23.20
2018-03-02T18:38:44.154Z,23.10
2018-03-02T18:41:24.804Z,23.10
2018-03-02T18:44:06.303Z,23.10
2018-03-02T18:46:46.729Z,23.10
2018-03-02T18:49:27.959Z,23.10
2018-03-02T18:52:08.523Z,23.10
2018-03-02T18:54:49.231Z,23.10
2018-03-02T18:57:29.812Z,23.10
2018-03-02T19:00:11.282Z,23.10
2018-03-02T19:02:51.951Z,23.00
2018-03-02T19:05:33.382Z,23.10
2018-03-02T19:08:14.027Z,23.10
2018-03-02T19:10:54.817Z,23.00
2018-03-02T19:13:35.605Z,23.00
2018-03-02T19:16:16.390Z,23.00
2018-03-02T19:18:56.954Z,23.00
2018-03-02T19:21:37.699Z,23.00
2018-03-02T19:24:18.370Z,23.00
2018-03-02T19:26:59.071Z,23.00
2018-03-02T19:29:39.698Z,23.00
2018-03-02T19:32:20.239Z,23.00
2018-03-02T19:35:00.904Z,22.90
2018-03-02T19:37:41.530Z,23.00
2018-03-02T19:40:22.408Z,23.00
2018-03-02T19:43:03.102Z,22.90
2018-03-02T19:45:44.483Z,22.90
2018-03-02T19:48:25.893Z,22.90
2018-03-02T19:51:06.427Z,22.90
2018-03-02T19:53:47.903Z,22.90
2018-03-02T19:56:28.375Z,22.90
2018-03-02T19:59:09.063Z,22.90
2018-03-02T20:01:49.742Z,22.90
2018-03-02T20:04:30.387Z,22.90
2018-03-02T20:07:11.722Z,22.90
2018-03-02T20:09:53.442Z,22.90
2018-03-02T20:12:34.247Z,22.90
2018-03-02T20:15:15.541Z,22.90
2018-03-02T20:17:56.707Z,22.80
2018-03-02T20:20:38.273Z,22.90
2018-03-02T20:23:19.735Z,22.80
2018-03-02T20:26:00.484Z,22.90
2018-03-02T20:28:41.077Z,22.80
2018-03-02T20:31:21.592Z,22.80
2018-03-02T20:34:03.347Z,22.80
2018-03-02T20:36:45.056Z,22.80
2018-03-02T20:39:25.799Z,22.80
2018-03-02T20:42:06.329Z,22.80
2018-03-02T20:44:47.062Z,22.80
2018-03-02T20:47:27.708Z,22.80
2018-03-02T20:50:08.297Z,22.80
2018-03-02T20:52:48.920Z,22.80
2018-03-02T20:55:30.400Z,22.80
2018-03-02T20:58:13.251Z,22.80
2018-03-02T21:00:53.811Z,22.80
2018-03-02T21:03:34.564Z,22.80
2018-03-02T21:06:15.662Z,22.80
2018-03-02T21:08:57.091Z,22.80
2018-03-02T21:11:37.746Z,22.80
2018-03-02T21:14:19.147Z,22.80
2018-03-02T21:17:00.384Z,22.80
2018-03-02T21:19:41.278Z,22.80
2018-03-02T21:22:21.825Z,22.80
2018-03-02T21:25:02.594Z,22.80
2018-03-02T21:27:43.365Z,22.80
2018-03-02T21:30:23.936Z,22.80
2018-03-02T21:33:04.649Z,22.80
2018-03-02T21:35:45.650Z,22.80
2018-03-02T21:38:26.420Z,22.80
2018-03-02T21:41:07.097Z,22.80
2018-03-02T21:43:47.669Z,22.70
2018-03-02T21:46:30.254Z,22.80
2018-03-02T21:49:10.981Z,22.70
2018-03-02T21:51:51.640Z,22.70
2018-03-02T21:54:32.261Z,22.70
2018-03-02T21:57:13.050Z,22.70
2018-03-02T21:59:53.693Z,22.70
2018-03-02T22:02:36.273Z,22.70
2018-03-02T22:05:16.898Z,22.70
2018-03-02T22:07:58.179Z,22.70
2018-03-02T22:10:38.884Z,22.70
2018-03-02T22:13:19.528Z,22.80
2018-03-02T22:16:01.248Z,22.70
2018-03-02T22:18:41.892Z,22.70
2018-03-02T22:21:23.314Z,22.70
2018-03-02T22:24:04.196Z,22.70
2018-03-02T22:26:45.095Z,22.70
2018-03-02T22:29:26.557Z,22.70
2018-03-02T22:32:07.175Z,22.70
2018-03-02T22:34:48.807Z,22.70
2018-03-02T22:37:30.119Z,22.70
2018-03-02T22:40:11.764Z,22.60
2018-03-02T22:42:52.396Z,22.70
2018-03-02T22:45:33.138Z,22.70
2018-03-02T22:48:13.891Z,22.70
2018-03-02T22:50:54.362Z,22.60
2018-03-02T22:53:35.127Z,22.70
2018-03-02T22:56:16.334Z,22.70
2018-03-02T22:58:57.583Z,22.70
2018-03-02T23:01:38.466Z,22.60
2018-03-02T23:04:21.029Z,22.60
2018-03-02T23:07:02.750Z,22.70
2018-03-02T23:09:43.333Z,22.70
2018-03-02T23:12:24.925Z,22.70
2018-03-02T23:15:05.634Z,22.70
2018-03-02T23:17:46.266Z,22.70
2018-03-02T23:20:29.706Z,22.70
2018-03-02T23:23:10.458Z,22.70
2018-03-02T23:25:51.217Z,22.70
2018-03-02T23:28:32.711Z,22.70
2018-03-02T23:31:14.097Z,22.70
2018-03-02T23:33:56.655Z,22.60
2018-03-02T23:36:38.948Z,22.70
2018-03-02T23:39:19.607Z,22.60
2018-03-02T23:42:01.697Z,22.70
2018-03-02T23:44:42.470Z,22.70
2018-03-02T23:47:23.122Z,22.70
2018-03-02T23:50:03.663Z,22.70
2018-03-02T23:52:45.219Z,22.70
2018-03-02T23:55:27.526Z,22.60
2018-03-02T23:58:08.163Z,22.70
